Time;durP1;ratioP1;P1;durP2;ratioP2;P2;SDS_P1;SDS_P2;PMS_P1;PMS_P2;Temp;Humidity;BMP_temperature;BMP_pressure;BME280_temperature;BME280_humidity;BME280_pressure;Samples;Min_cycle;Max_cycle;Signal;HPM_P1;HPM_P2
2022/09/07 00:02:07;;;;;;;11.43;5.10;;;;;;;;;;5029667;28;20048;-64
2022/09/07 00:04:34;;;;;;;13.82;5.35;;;;;;;;;;5023040;28;20167;-64
2022/09/07 00:07:00;;;;;;;15.95;5.70;;;;;;;;;;5027661;28;20037;-64
2022/09/07 00:09:27;;;;;;;10.70;5.25;;;;;;;;;;5036524;28;20049;-64
2022/09/07 00:11:54;;;;;;;14.73;5.65;;;;;;;;;;5033445;28;20042;-64
2022/09/07 00:14:21;;;;;;;12.57;5.88;;;;;;;;;;5015548;28;20038;-64
2022/09/07 00:16:47;;;;;;;13.65;5.30;;;;;;;;;;5017422;28;20091;-64
2022/09/07 00:19:14;;;;;;;11.52;5.70;;;;;;;;;;5018125;28;20033;-63
2022/09/07 00:21:41;;;;;;;16.55;5.80;;;;;;;;;;5016973;28;21007;-64
2022/09/07 00:24:07;;;;;;;11.82;5.50;;;;;;;;;;5019694;28;20044;-64
2022/09/07 00:26:34;;;;;;;16.98;6.47;;;;;;;;;;5017504;28;20111;-65
2022/09/07 00:29:02;;;;;;;12.02;5.38;;;;;;;;;;5026278;28;20631;-64
2022/09/07 00:31:29;;;;;;;14.63;5.43;;;;;;;;;;5038301;28;20072;-64
2022/09/07 00:33:58;;;;;;;11.23;5.82;;;;;;;;;;5039184;28;20236;-64
2022/09/07 00:36:24;;;;;;;9.88;5.05;;;;;;;;;;5036416;28;20070;-64
2022/09/07 00:38:51;;;;;;;10.82;5.57;;;;;;;;;;5031761;28;20034;-64
2022/09/07 00:41:19;;;;;;;13.95;5.85;;;;;;;;;;5031011;28;20045;-63
2022/09/07 00:43:48;;;;;;;11.35;5.40;;;;;;;;;;5033053;28;20100;-65
2022/09/07 00:46:15;;;;;;;14.82;5.90;;;;;;;;;;5038529;28;20037;-64
2022/09/07 00:48:45;;;;;;;20.33;6.03;;;;;;;;;;5040607;28;20670;-64
2022/09/07 00:51:15;;;;;;;14.02;6.68;;;;;;;;;;5041705;28;20128;-64
2022/09/07 00:53:44;;;;;;;12.80;6.07;;;;;;;;;;5040736;28;21042;-64
2022/09/07 00:56:12;;;;;;;13.63;6.65;;;;;;;;;;5040728;28;20040;-65
2022/09/07 00:58:40;;;;;;;12.32;6.88;;;;;;;;;;5040919;28;20079;-64
2022/09/07 01:01:08;;;;;;;13.93;6.38;;;;;;;;;;5042232;28;20037;-65
2022/09/07 01:03:38;;;;;;;11.93;6.90;;;;;;;;;;5038205;28;20037;-66
2022/09/07 01:06:12;;;;;;;18.77;8.23;;;;;;;;;;5023301;28;20049;-68
2022/09/07 01:08:38;;;;;;;17.83;10.82;;;;;;;;;;5024828;28;20057;-67
2022/09/07 01:11:06;;;;;;;17.80;9.05;;;;;;;;;;5030781;28;20460;-65
2022/09/07 01:13:32;;;;;;;18.20;11.32;;;;;;;;;;5042343;28;20144;-63
2022/09/07 01:16:05;;;;;;;19.33;7.68;;;;;;;;;;5040780;28;20041;-64
2022/09/07 01:18:31;;;;;;;;;;;;;;;;;;5040363;28;20128;-64
2022/09/07 01:21:20;;;;;;;13.82;6.40;;;;;;;;;;5039730;28;19921;-63
2022/09/07 01:23:53;;;;;;;15.77;6.43;;;;;;;;;;5033305;28;20626;-64
2022/09/07 01:26:30;;;;;;;18.20;6.80;;;;;;;;;;5040910;28;20049;-64
2022/09/07 01:29:05;;;;;;;16.65;6.22;;;;;;;;;;5042635;28;20052;-64
2022/09/07 01:31:50;;;;;;;13.57;5.78;;;;;;;;;;5023411;28;20588;-64
2022/09/07 01:34:17;;;;;;;14.52;6.03;;;;;;;;;;5038998;28;20036;-64
2022/09/07 01:36:50;;;;;;;17.70;6.22;;;;;;;;;;5033230;28;20079;-64
2022/09/07 01:39:17;;;;;;;14.65;5.88;;;;;;;;;;5025993;28;20525;-64
2022/09/07 01:41:47;;;;;;;13.68;6.10;;;;;;;;;;5023359;28;20041;-62
2022/09/07 01:44:19;;;;;;;12.45;5.65;;;;;;;;;;5038030;28;20081;-64
2022/09/07 01:47:06;;;;;;;12.18;5.68;;;;;;;;;;5024052;28;20045;-65
2022/09/07 01:50:02;;;;;;;13.77;5.97;;;;;;;;;;5019720;28;20105;-64
2022/09/07 01:52:44;;;;;;;11.05;5.95;;;;;;;;;;5016143;28;20137;-64
2022/09/07 01:55:16;;;;;;;16.35;6.15;;;;;;;;;;5019432;28;21682;-64
2022/09/07 01:57:45;;;;;;;14.02;6.18;;;;;;;;;;5019344;28;20037;-64
2022/09/07 02:00:13;;;;;;;13.45;6.15;;;;;;;;;;5022105;28;20053;-64
2022/09/07 02:02:59;;;;;;;17.80;5.72;;;;;;;;;;5022209;28;20190;-64
2022/09/07 02:05:35;;;;;;;16.33;5.85;;;;;;;;;;5024787;28;20097;-64
2022/09/07 02:08:10;;;;;;;16.15;5.82;;;;;;;;;;5035195;28;20072;-64
2022/09/07 02:10:40;;;;;;;18.65;6.03;;;;;;;;;;5039163;28;20498;-64
2022/09/07 02:13:12;;;;;;;12.02;5.53;;;;;;;;;;5041995;28;20397;-64
2022/09/07 02:15:51;;;;;;;14.38;5.72;;;;;;;;;;5040991;28;20133;-63
2022/09/07 02:18:20;;;;;;;16.67;5.72;;;;;;;;;;5041728;28;20128;-64
2022/09/07 02:20:48;;;;;;;14.50;6.05;;;;;;;;;;5044502;28;20049;-68
2022/09/07 02:23:25;;;;;;;21.23;6.00;;;;;;;;;;5028674;28;20041;-63
2022/09/07 02:26:12;;;;;;;12.75;5.32;;;;;;;;;;5035636;28;20990;-64
2022/09/07 02:28:39;;;;;;;15.15;6.07;;;;;;;;;;5030434;28;20041;-66
2022/09/07 02:31:07;;;;;;;13.90;5.60;;;;;;;;;;5045960;28;20040;-65
2022/09/07 02:33:34;;;;;;;16.90;5.63;;;;;;;;;;5039641;28;20045;-66
2022/09/07 02:36:01;;;;;;;13.73;5.57;;;;;;;;;;5041180;28;20106;-65
2022/09/07 02:38:27;;;;;;;14.82;6.35;;;;;;;;;;5023013;28;20037;-65
2022/09/07 02:40:55;;;;;;;18.88;6.28;;;;;;;;;;5032757;28;20029;-64
2022/09/07 02:43:22;;;;;;;10.32;5.90;;;;;;;;;;5037901;28;20086;-64
2022/09/07 02:45:55;;;;;;;13.15;5.90;;;;;;;;;;5037711;28;20029;-65
2022/09/07 02:48:31;;;;;;;15.52;5.82;;;;;;;;;;5038316;28;20060;-64
2022/09/07 02:51:11;;;;;;;14.50;5.97;;;;;;;;;;5039829;28;20105;-64
2022/09/07 02:53:51;;;;;;;13.73;5.87;;;;;;;;;;5038814;28;20052;-64
2022/09/07 02:56:17;;;;;;;17.77;6.25;;;;;;;;;;5038846;28;20056;-64
2022/09/07 02:58:47;;;;;;;17.27;6.35;;;;;;;;;;5028222;28;20046;-65
2022/09/07 03:01:19;;;;;;;13.93;6.10;;;;;;;;;;5027433;28;20044;-65
2022/09/07 03:03:49;;;;;;;13.45;5.75;;;;;;;;;;5019597;28;20040;-65
2022/09/07 03:06:21;;;;;;;17.10;5.68;;;;;;;;;;5021040;28;20049;-65
2022/09/07 03:08:50;;;;;;;15.50;5.90;;;;;;;;;;5028307;28;20053;-66
2022/09/07 03:11:17;;;;;;;17.27;6.75;;;;;;;;;;5022671;28;20042;-66
2022/09/07 03:13:43;;;;;;;17.35;5.63;;;;;;;;;;5042992;28;20041;-64
2022/09/07 03:16:14;;;;;;;13.48;5.70;;;;;;;;;;5046355;28;20068;-67
2022/09/07 03:18:41;;;;;;;15.48;5.18;;;;;;;;;;5046547;28;25134;-68
2022/09/07 03:21:08;;;;;;;14.27;6.60;;;;;;;;;;5030855;28;20139;-68
2022/09/07 03:23:36;;;;;;;25.83;6.15;;;;;;;;;;5034844;28;20037;-67
2022/09/07 03:26:03;;;;;;;20.15;5.78;;;;;;;;;;5039209;28;20127;-67
2022/09/07 03:28:30;;;;;;;14.93;6.05;;;;;;;;;;5044508;28;20057;-67
2022/09/07 03:30:56;;;;;;;15.60;6.43;;;;;;;;;;5043580;28;20049;-67
2022/09/07 03:33:23;;;;;;;16.50;6.30;;;;;;;;;;5041718;28;20047;-67
2022/09/07 03:36:01;;;;;;;18.27;6.20;;;;;;;;;;5041467;28;20123;-68
2022/09/07 03:38:27;;;;;;;14.65;6.40;;;;;;;;;;5041538;28;20040;-68
2022/09/07 03:41:12;;;;;;;15.07;5.55;;;;;;;;;;5041627;28;20025;-68
2022/09/07 03:43:38;;;;;;;13.70;5.78;;;;;;;;;;5042366;28;20053;-68
2022/09/07 03:46:06;;;;;;;20.38;6.25;;;;;;;;;;5040642;28;20033;-69
2022/09/07 03:48:34;;;;;;;19.23;6.13;;;;;;;;;;5041129;28;20088;-68
2022/09/07 03:51:08;;;;;;;11.27;6.03;;;;;;;;;;5042042;28;20029;-68
2022/09/07 03:53:36;;;;;;;13.95;6.40;;;;;;;;;;5040728;28;20537;-68
2022/09/07 03:56:06;;;;;;;18.05;5.55;;;;;;;;;;5041219;28;20044;-68
2022/09/07 03:58:34;;;;;;;15.68;6.30;;;;;;;;;;5039924;28;20051;-69
2022/09/07 04:01:05;;;;;;;17.58;6.18;;;;;;;;;;5021641;28;20037;-70
2022/09/07 04:03:31;;;;;;;17.50;6.03;;;;;;;;;;5029263;28;20044;-69
2022/09/07 04:05:58;;;;;;;17.00;6.28;;;;;;;;;;5022188;28;20050;-68
2022/09/07 04:08:26;;;;;;;11.93;5.78;;;;;;;;;;5031863;28;20137;-67
2022/09/07 04:10:53;;;;;;;17.27;6.40;;;;;;;;;;5025217;28;20037;-67
2022/09/07 04:13:19;;;;;;;16.63;5.90;;;;;;;;;;5022782;28;20505;-68
2022/09/07 04:15:46;;;;;;;32.20;7.45;;;;;;;;;;5025604;28;21495;-67
2022/09/07 04:18:12;;;;;;;21.92;6.65;;;;;;;;;;5027001;28;20918;-67
2022/09/07 04:20:39;;;;;;;20.67;6.70;;;;;;;;;;5041547;28;20035;-67
2022/09/07 04:23:05;;;;;;;19.20;6.10;;;;;;;;;;5043304;28;20086;-67
2022/09/07 04:25:33;;;;;;;18.85;6.38;;;;;;;;;;5043312;28;20051;-67
2022/09/07 04:28:00;;;;;;;19.40;6.50;;;;;;;;;;5043719;28;20045;-67
2022/09/07 04:30:26;;;;;;;25.40;7.25;;;;;;;;;;5042206;28;20121;-67
2022/09/07 04:32:53;;;;;;;15.50;6.43;;;;;;;;;;5042913;28;20029;-68
2022/09/07 04:35:20;;;;;;;17.38;6.82;;;;;;;;;;5041892;28;20103;-67
2022/09/07 04:37:46;;;;;;;17.10;6.72;;;;;;;;;;5031512;28;20036;-67
2022/09/07 04:40:13;;;;;;;14.55;6.28;;;;;;;;;;5022604;28;20072;-67
2022/09/07 04:42:39;;;;;;;14.77;6.43;;;;;;;;;;5023550;28;20071;-67
2022/09/07 04:45:06;;;;;;;20.65;6.65;;;;;;;;;;5021769;28;20038;-67
2022/09/07 04:47:33;;;;;;;19.33;6.93;;;;;;;;;;5021201;28;20072;-67
2022/09/07 04:49:59;;;;;;;19.50;7.13;;;;;;;;;;5020316;28;20088;-66
2022/09/07 04:52:26;;;;;;;17.40;7.07;;;;;;;;;;5020477;28;20037;-67
2022/09/07 04:54:52;;;;;;;17.33;6.93;;;;;;;;;;5021176;28;20042;-67
2022/09/07 04:57:24;;;;;;;22.92;7.10;;;;;;;;;;5021321;28;20045;-66
2022/09/07 04:59:51;;;;;;;25.10;7.38;;;;;;;;;;5028640;28;21788;-67
2022/09/07 05:02:17;;;;;;;22.63;7.18;;;;;;;;;;5042247;28;20033;-67
2022/09/07 05:04:44;;;;;;;23.27;6.95;;;;;;;;;;5040998;28;20480;-66
2022/09/07 05:07:11;;;;;;;20.92;6.95;;;;;;;;;;5043033;28;20037;-67
2022/09/07 05:09:37;;;;;;;22.13;7.13;;;;;;;;;;5042957;28;20055;-68
2022/09/07 05:12:04;;;;;;;16.50;6.90;;;;;;;;;;5043042;28;20040;-67
2022/09/07 05:14:30;;;;;;;18.33;7.00;;;;;;;;;;5042625;28;20048;-66
2022/09/07 05:16:57;;;;;;;17.27;6.78;;;;;;;;;;5044870;28;20231;-66
2022/09/07 05:19:24;;;;;;;17.77;6.85;;;;;;;;;;5027957;28;20037;-67
2022/09/07 05:21:50;;;;;;;22.02;7.53;;;;;;;;;;5032069;28;20133;-67
2022/09/07 05:24:17;;;;;;;23.45;7.80;;;;;;;;;;5024773;28;20041;-67
2022/09/07 05:26:43;;;;;;;20.00;6.72;;;;;;;;;;5039674;28;20153;-67
2022/09/07 05:29:10;;;;;;;19.77;6.97;;;;;;;;;;5040245;28;20612;-68
2022/09/07 05:31:36;;;;;;;21.15;7.07;;;;;;;;;;5039918;28;20628;-67
2022/09/07 05:34:03;;;;;;;23.95;8.05;;;;;;;;;;5020501;28;20080;-68
2022/09/07 05:36:30;;;;;;;24.48;7.03;;;;;;;;;;5037443;28;20033;-67
2022/09/07 05:38:58;;;;;;;21.45;6.88;;;;;;;;;;5031497;28;20037;-67
2022/09/07 05:41:26;;;;;;;16.85;7.25;;;;;;;;;;5029866;28;20048;-68
2022/09/07 05:43:53;;;;;;;20.40;7.93;;;;;;;;;;5026725;28;20049;-68
2022/09/07 05:46:20;;;;;;;17.40;7.30;;;;;;;;;;5024655;28;20041;-68
2022/09/07 05:48:46;;;;;;;21.13;6.80;;;;;;;;;;5045808;28;20053;-67
2022/09/07 05:51:13;;;;;;;19.85;7.65;;;;;;;;;;5036949;28;20052;-68
2022/09/07 05:53:42;;;;;;;18.02;7.43;;;;;;;;;;5025777;28;20095;-68
2022/09/07 05:56:08;;;;;;;19.50;7.13;;;;;;;;;;5028996;28;20051;-68
2022/09/07 05:58:35;;;;;;;20.10;8.10;;;;;;;;;;5023344;28;20034;-68
2022/09/07 06:01:07;;;;;;;24.13;7.43;;;;;;;;;;5034663;28;20033;-68
2022/09/07 06:03:37;;;;;;;18.33;6.82;;;;;;;;;;5039651;28;20037;-68
2022/09/07 06:06:04;;;;;;;18.20;8.00;;;;;;;;;;5039155;28;20144;-68
2022/09/07 06:08:31;;;;;;;25.55;7.93;;;;;;;;;;5039267;28;20057;-68
2022/09/07 06:10:57;;;;;;;23.90;7.93;;;;;;;;;;5040588;28;20492;-68
2022/09/07 06:13:24;;;;;;;15.63;6.82;;;;;;;;;;5039549;28;20033;-68
2022/09/07 06:15:51;;;;;;;19.73;7.13;;;;;;;;;;5040601;28;20110;-68
2022/09/07 06:18:17;;;;;;;19.85;7.57;;;;;;;;;;5041646;28;20041;-68
2022/09/07 06:20:44;;;;;;;20.48;7.30;;;;;;;;;;5038482;28;20041;-68
2022/09/07 06:23:11;;;;;;;20.85;7.60;;;;;;;;;;5040517;28;20048;-67
2022/09/07 06:25:37;;;;;;;14.63;7.25;;;;;;;;;;5038480;28;20036;-67
2022/09/07 06:28:04;;;;;;;20.17;7.15;;;;;;;;;;5039296;28;20905;-67
2022/09/07 06:30:30;;;;;;;19.17;7.47;;;;;;;;;;5038430;28;20051;-68
2022/09/07 06:32:57;;;;;;;18.33;7.13;;;;;;;;;;5039365;28;20136;-67
2022/09/07 06:35:24;;;;;;;21.52;7.50;;;;;;;;;;5038656;28;20123;-67
2022/09/07 06:37:51;;;;;;;19.08;7.53;;;;;;;;;;5040790;28;20091;-67
2022/09/07 06:40:17;;;;;;;18.20;7.13;;;;;;;;;;5038274;28;20064;-68
2022/09/07 06:42:44;;;;;;;19.48;7.53;;;;;;;;;;5039702;28;20037;-68
2022/09/07 06:45:11;;;;;;;23.80;7.03;;;;;;;;;;5041534;28;20995;-67
2022/09/07 06:47:38;;;;;;;21.00;8.40;;;;;;;;;;5031059;28;20064;-67
2022/09/07 06:50:05;;;;;;;38.33;7.72;;;;;;;;;;5028898;28;20061;-67
2022/09/07 06:52:31;;;;;;;19.27;7.78;;;;;;;;;;5030259;28;20130;-68
2022/09/07 06:54:58;;;;;;;23.23;7.35;;;;;;;;;;5019752;28;20044;-68
2022/09/07 06:57:25;;;;;;;16.98;7.70;;;;;;;;;;5026902;28;20099;-68
2022/09/07 06:59:52;;;;;;;15.27;7.35;;;;;;;;;;5030418;28;20727;-67
2022/09/07 07:02:19;;;;;;;17.02;7.97;;;;;;;;;;5021563;28;20404;-67
2022/09/07 07:04:45;;;;;;;22.15;7.38;;;;;;;;;;5036416;28;20038;-68
2022/09/07 07:07:13;;;;;;;21.45;8.10;;;;;;;;;;5029248;28;20036;-68
2022/09/07 07:09:40;;;;;;;22.20;8.18;;;;;;;;;;5029042;28;20517;-68
2022/09/07 07:12:07;;;;;;;23.75;7.93;;;;;;;;;;5027068;28;20141;-68
2022/09/07 07:14:34;;;;;;;20.60;7.82;;;;;;;;;;5039769;28;20536;-68
2022/09/07 07:17:01;;;;;;;20.67;7.88;;;;;;;;;;5042433;28;20041;-68
2022/09/07 07:19:28;;;;;;;25.60;8.85;;;;;;;;;;5040754;28;20044;-67
2022/09/07 07:21:54;;;;;;;20.35;9.25;;;;;;;;;;5041520;28;20064;-68
2022/09/07 07:24:21;;;;;;;23.67;8.32;;;;;;;;;;5040422;28;20099;-67
2022/09/07 07:26:47;;;;;;;18.70;8.18;;;;;;;;;;5054291;28;20048;-68
2022/09/07 07:29:14;;;;;;;25.10;9.45;;;;;;;;;;5034415;28;20049;-67
2022/09/07 07:31:41;;;;;;;20.65;8.35;;;;;;;;;;5022982;28;20091;-68
2022/09/07 07:34:07;;;;;;;20.92;8.40;;;;;;;;;;5041827;28;20118;-67
2022/09/07 07:36:34;;;;;;;20.67;7.88;;;;;;;;;;5030925;28;20038;-67
2022/09/07 07:39:04;;;;;;;22.52;8.50;;;;;;;;;;5031711;28;20135;-67
2022/09/07 07:41:31;;;;;;;22.65;8.93;;;;;;;;;;5029115;28;20048;-67
2022/09/07 07:43:59;;;;;;;26.30;8.45;;;;;;;;;;5033135;28;20110;-68
2022/09/07 07:46:26;;;;;;;24.70;7.82;;;;;;;;;;5030322;28;20052;-67
2022/09/07 07:48:53;;;;;;;25.33;9.77;;;;;;;;;;5034590;28;20053;-67
2022/09/07 07:51:20;;;;;;;20.23;8.85;;;;;;;;;;5038808;28;20045;-67
2022/09/07 07:53:47;;;;;;;17.38;8.02;;;;;;;;;;5048164;28;20124;-69
2022/09/07 07:56:13;;;;;;;22.73;8.15;;;;;;;;;;5047314;28;20060;-68
2022/09/07 07:58:43;;;;;;;27.45;9.10;;;;;;;;;;5047888;28;20045;-68
2022/09/07 08:01:11;;;;;;;35.17;8.27;;;;;;;;;;5046911;28;20131;-68
2022/09/07 08:03:38;;;;;;;37.13;9.60;;;;;;;;;;5048264;28;20073;-68
2022/09/07 08:06:06;;;;;;;27.27;8.55;;;;;;;;;;5049953;28;20036;-68
2022/09/07 08:08:34;;;;;;;16.08;7.95;;;;;;;;;;5060670;28;20799;-68
2022/09/07 08:11:08;;;;;;;24.48;8.52;;;;;;;;;;5029149;28;20046;-68
2022/09/07 08:13:35;;;;;;;16.45;7.65;;;;;;;;;;5028295;28;20305;-68
2022/09/07 08:16:02;;;;;;;19.52;7.53;;;;;;;;;;5033179;28;20045;-68
2022/09/07 08:18:29;;;;;;;17.65;7.55;;;;;;;;;;5045431;28;20041;-68
2022/09/07 08:21:01;;;;;;;21.50;8.00;;;;;;;;;;5044823;28;20048;-68
2022/09/07 08:23:27;;;;;;;20.92;8.00;;;;;;;;;;5045316;28;20048;-68
2022/09/07 08:25:57;;;;;;;25.73;7.57;;;;;;;;;;5046282;28;20045;-68
2022/09/07 08:28:24;;;;;;;21.95;7.75;;;;;;;;;;5039423;28;20125;-68
2022/09/07 08:30:50;;;;;;;16.80;8.38;;;;;;;;;;5040570;28;20040;-68
2022/09/07 08:33:17;;;;;;;15.38;7.78;;;;;;;;;;5042243;28;20033;-68
2022/09/07 08:35:53;;;;;;;17.63;7.65;;;;;;;;;;5023126;28;20377;-68
2022/09/07 08:38:20;;;;;;;19.25;7.00;;;;;;;;;;5024951;28;20076;-70
2022/09/07 08:40:46;;;;;;;18.88;7.05;;;;;;;;;;5042716;28;20040;-68
2022/09/07 08:43:36;;;;;;;21.58;7.82;;;;;;;;;;5044859;28;20801;-69
2022/09/07 08:46:13;;;;;;;15.13;7.10;;;;;;;;;;5028480;28;20114;-69
2022/09/07 08:48:40;;;;;;;18.95;7.32;;;;;;;;;;5044089;28;20079;-68
2022/09/07 08:51:12;;;;;;;15.85;7.47;;;;;;;;;;5045988;28;20037;-68
2022/09/07 08:53:44;;;;;;;17.00;7.55;;;;;;;;;;5045395;28;20044;-68
2022/09/07 08:56:17;;;;;;;20.50;7.78;;;;;;;;;;5048021;28;20040;-68
2022/09/07 08:58:47;;;;;;;22.85;7.45;;;;;;;;;;5046738;28;20045;-68
2022/09/07 09:01:14;;;;;;;19.40;7.28;;;;;;;;;;5049757;28;20084;-68
2022/09/07 09:03:41;;;;;;;22.55;7.75;;;;;;;;;;5028792;28;20754;-68
2022/09/07 09:06:11;;;;;;;18.42;7.22;;;;;;;;;;5033897;28;20041;-68
2022/09/07 09:08:46;;;;;;;21.55;7.78;;;;;;;;;;5036681;28;20061;-68
2022/09/07 09:11:21;;;;;;;19.10;8.02;;;;;;;;;;5031185;28;20143;-68
2022/09/07 09:13:54;;;;;;;18.88;8.07;;;;;;;;;;5025308;28;20115;-67
2022/09/07 09:16:29;;;;;;;15.68;7.45;;;;;;;;;;5039017;28;20072;-67
2022/09/07 09:19:12;;;;;;;23.73;8.45;;;;;;;;;;5043374;28;20051;-67
2022/09/07 09:21:40;;;;;;;19.85;8.10;;;;;;;;;;5043869;28;20394;-68
2022/09/07 09:24:19;;;;;;;16.10;7.78;;;;;;;;;;5042293;28;20480;-67
2022/09/07 09:26:50;;;;;;;25.58;8.85;;;;;;;;;;5035387;28;20069;-66
2022/09/07 09:29:20;;;;;;;18.27;7.80;;;;;;;;;;5042134;28;20049;-67
2022/09/07 09:31:47;;;;;;;17.65;7.57;;;;;;;;;;5023538;28;20064;-68
2022/09/07 09:34:18;;;;;;;20.50;8.18;;;;;;;;;;5015887;28;20053;-68
2022/09/07 09:36:45;;;;;;;17.58;8.30;;;;;;;;;;5026185;28;20107;-67
2022/09/07 09:39:25;;;;;;;15.65;8.00;;;;;;;;;;5036984;28;20519;-67
2022/09/07 09:41:53;;;;;;;20.45;7.68;;;;;;;;;;5045870;28;20060;-67
2022/09/07 09:44:21;;;;;;;17.58;8.02;;;;;;;;;;5044923;28;20053;-67
2022/09/07 09:46:51;;;;;;;20.92;7.35;;;;;;;;;;5046235;28;20406;-66
2022/09/07 09:49:25;;;;;;;17.75;8.13;;;;;;;;;;5048290;28;20118;-66
2022/09/07 09:51:55;;;;;;;22.70;7.57;;;;;;;;;;5050076;28;20124;-68
2022/09/07 09:54:33;;;;;;;14.63;7.78;;;;;;;;;;5049501;28;20041;-67
2022/09/07 09:57:00;;;;;;;25.83;9.23;;;;;;;;;;5032420;28;20049;-67
2022/09/07 09:59:28;;;;;;;22.13;8.75;;;;;;;;;;5024243;28;20041;-68
2022/09/07 10:01:55;;;;;;;22.10;8.52;;;;;;;;;;5036719;28;20092;-67
2022/09/07 10:04:26;;;;;;;20.58;7.78;;;;;;;;;;5040487;28;20120;-67
2022/09/07 10:07:11;;;;;;;21.70;8.30;;;;;;;;;;5024138;28;20041;-67
2022/09/07 10:09:39;;;;;;;16.42;7.78;;;;;;;;;;5040088;28;20114;-67
2022/09/07 10:12:07;;;;;;;18.38;8.10;;;;;;;;;;5040266;28;20041;-66
2022/09/07 10:14:42;;;;;;;18.85;8.07;;;;;;;;;;5038699;28;20037;-67
2022/09/07 10:17:13;;;;;;;15.38;8.32;;;;;;;;;;5040872;28;20419;-68
2022/09/07 10:19:41;;;;;;;21.65;8.30;;;;;;;;;;5040859;28;20090;-67
2022/09/07 10:22:20;;;;;;;18.30;7.88;;;;;;;;;;5039458;28;20041;-67
2022/09/07 10:24:46;;;;;;;15.43;8.20;;;;;;;;;;5041018;28;20061;-67
2022/09/07 10:27:32;;;;;;;20.00;8.45;;;;;;;;;;5027306;28;21817;-67
2022/09/07 10:29:58;;;;;;;16.60;7.57;;;;;;;;;;5021968;28;20056;-67
2022/09/07 10:32:44;;;;;;;13.35;7.55;;;;;;;;;;5036556;28;20068;-68
2022/09/07 10:35:24;;;;;;;21.02;8.57;;;;;;;;;;5038691;28;20032;-66
2022/09/07 10:37:59;;;;;;;16.88;8.00;;;;;;;;;;5042312;28;20048;-67
2022/09/07 10:40:26;;;;;;;12.77;7.38;;;;;;;;;;5041267;28;20048;-68
2022/09/07 10:42:58;;;;;;;16.90;7.80;;;;;;;;;;5042131;28;20057;-67
2022/09/07 10:45:48;;;;;;;19.13;8.07;;;;;;;;;;5043541;28;20041;-68
2022/09/07 10:48:15;;;;;;;20.20;7.88;;;;;;;;;;5040777;28;20123;-68
2022/09/07 10:50:51;;;;;;;19.02;7.75;;;;;;;;;;5039981;28;20080;-67
2022/09/07 10:53:36;;;;;;;15.05;7.65;;;;;;;;;;5035336;28;20072;-68
2022/09/07 10:56:09;;;;;;;17.95;7.78;;;;;;;;;;5021299;28;20049;-68
2022/09/07 10:58:55;;;;;;;22.83;8.13;;;;;;;;;;5028957;28;20457;-68
2022/09/07 11:01:21;;;;;;;16.60;7.97;;;;;;;;;;5055659;28;20792;-70
2022/09/07 11:03:48;;;;;;;26.55;8.05;;;;;;;;;;5029276;28;20045;-67
2022/09/07 11:06:20;;;;;;;20.48;8.00;;;;;;;;;;5030514;28;20095;-67
2022/09/07 11:08:48;;;;;;;20.60;7.65;;;;;;;;;;5021783;28;20041;-67
2022/09/07 11:11:24;;;;;;;17.13;7.85;;;;;;;;;;5039646;28;20041;-67
2022/09/07 11:13:53;;;;;;;18.27;8.55;;;;;;;;;;5030601;28;20060;-67
2022/09/07 11:16:25;;;;;;;20.30;8.02;;;;;;;;;;5022087;28;20087;-68
2022/09/07 11:19:20;;;;;;;26.13;8.73;;;;;;;;;;5024052;28;20061;-68
2022/09/07 11:21:57;;;;;;;15.68;7.50;;;;;;;;;;5023873;28;20496;-68
2022/09/07 11:24:31;;;;;;;22.00;8.60;;;;;;;;;;5040418;28;20049;-68
2022/09/07 11:27:00;;;;;;;16.38;8.38;;;;;;;;;;5040398;28;20037;-65
2022/09/07 11:29:38;;;;;;;20.00;8.00;;;;;;;;;;5037605;28;20053;-65
2022/09/07 11:32:09;;;;;;;16.67;7.97;;;;;;;;;;5039010;28;20041;-64
2022/09/07 11:34:44;;;;;;;15.30;7.68;;;;;;;;;;5037525;28;20041;-67
2022/09/07 11:37:19;;;;;;;17.63;8.30;;;;;;;;;;5041665;28;20040;-71
2022/09/07 11:39:52;;;;;;;18.48;8.93;;;;;;;;;;5040178;28;20171;-68
2022/09/07 11:42:29;;;;;;;17.95;8.63;;;;;;;;;;5039307;28;20041;-68
2022/09/07 11:45:02;;;;;;;16.73;8.05;;;;;;;;;;5041199;28;20421;-68
2022/09/07 11:47:49;;;;;;;18.95;8.23;;;;;;;;;;5017146;28;20497;-69
2022/09/07 11:50:18;;;;;;;21.38;8.48;;;;;;;;;;5026509;28;20138;-68
2022/09/07 11:52:50;;;;;;;17.70;7.60;;;;;;;;;;5026915;28;20149;-69
2022/09/07 11:55:27;;;;;;;15.75;7.78;;;;;;;;;;5034510;28;20561;-69
2022/09/07 11:58:16;;;;;;;18.90;8.15;;;;;;;;;;5033848;28;20754;-68
2022/09/07 12:00:48;;;;;;;14.32;7.70;;;;;;;;;;5023407;28;20033;-69
2022/09/07 12:03:17;;;;;;;19.65;8.15;;;;;;;;;;5021445;28;20037;-65
2022/09/07 12:05:47;;;;;;;19.25;8.65;;;;;;;;;;5020185;28;20049;-64
2022/09/07 12:08:30;;;;;;;18.90;8.48;;;;;;;;;;5029308;28;20051;-64
2022/09/07 12:11:14;;;;;;;20.10;8.35;;;;;;;;;;5055306;28;20048;-64
2022/09/07 12:13:40;;;;;;;20.83;9.00;;;;;;;;;;5024821;28;20470;-65
2022/09/07 12:16:07;;;;;;;22.73;8.70;;;;;;;;;;5038360;28;20966;-65
2022/09/07 12:18:59;;;;;;;20.08;8.85;;;;;;;;;;5037556;28;20907;-65
2022/09/07 12:21:40;;;;;;;18.10;8.52;;;;;;;;;;5037363;28;20056;-65
2022/09/07 12:24:25;;;;;;;17.60;8.20;;;;;;;;;;5037596;28;20477;-64
2022/09/07 12:26:51;;;;;;;17.60;8.23;;;;;;;;;;5027104;28;20076;-67
2022/09/07 12:29:20;;;;;;;21.75;9.15;;;;;;;;;;5036275;28;20067;-68
2022/09/07 12:32:12;;;;;;;21.63;8.45;;;;;;;;;;5027040;28;20115;-68
2022/09/07 12:34:59;;;;;;;23.98;9.38;;;;;;;;;;5019336;28;20049;-67
2022/09/07 12:37:38;;;;;;;17.17;8.68;;;;;;;;;;5028934;28;20036;-67
2022/09/07 12:40:32;;;;;;;18.75;8.70;;;;;;;;;;5041324;28;20040;-66
2022/09/07 12:43:14;;;;;;;25.40;14.10;;;;;;;;;;5011021;28;20429;-68
2022/09/07 12:45:43;;;;;;;19.25;9.48;;;;;;;;;;5031052;28;20053;-68
2022/09/07 12:48:16;;;;;;;17.45;9.48;;;;;;;;;;5029883;28;20388;-67
2022/09/07 12:51:01;;;;;;;18.60;8.25;;;;;;;;;;5039609;28;20079;-68
2022/09/07 12:53:46;;;;;;;21.60;9.48;;;;;;;;;;5039853;28;20045;-68
2022/09/07 12:56:19;;;;;;;16.20;8.88;;;;;;;;;;5037464;28;20057;-68
2022/09/07 12:59:04;;;;;;;21.13;9.05;;;;;;;;;;5035599;28;20048;-68
2022/09/07 13:01:33;;;;;;;18.60;8.43;;;;;;;;;;5034527;28;20037;-68
2022/09/07 13:04:00;;;;;;;21.33;9.43;;;;;;;;;;5025151;28;20083;-66
2022/09/07 13:06:49;;;;;;;19.38;8.95;;;;;;;;;;5035091;28;20037;-65
2022/09/07 13:09:16;;;;;;;21.75;8.85;;;;;;;;;;5039683;28;20116;-64
2022/09/07 13:11:42;;;;;;;18.20;9.38;;;;;;;;;;5033176;28;20041;-64
2022/09/07 13:14:15;;;;;;;17.38;8.98;;;;;;;;;;5025516;28;20053;-67
2022/09/07 13:16:43;;;;;;;19.48;9.00;;;;;;;;;;5028714;28;20037;-67
2022/09/07 13:19:14;;;;;;;20.25;8.85;;;;;;;;;;5042409;28;20033;-67
2022/09/07 13:21:48;;;;;;;19.85;9.18;;;;;;;;;;5040196;28;20123;-67
2022/09/07 13:24:15;;;;;;;23.08;9.45;;;;;;;;;;5041645;28;20073;-65
2022/09/07 13:27:11;;;;;;;18.73;8.68;;;;;;;;;;5043159;28;20451;-66
2022/09/07 13:29:42;;;;;;;19.88;9.10;;;;;;;;;;5012806;28;20046;-66
2022/09/07 13:32:19;;;;;;;18.70;9.13;;;;;;;;;;5044766;28;20041;-66
2022/09/07 13:34:49;;;;;;;19.13;8.85;;;;;;;;;;5039978;28;20056;-66
2022/09/07 13:37:17;;;;;;;22.90;9.75;;;;;;;;;;5042923;28;20045;-66
2022/09/07 13:39:46;;;;;;;14.43;8.80;;;;;;;;;;5041951;28;20049;-65
2022/09/07 13:42:17;;;;;;;18.35;9.45;;;;;;;;;;5027389;28;20048;-65
2022/09/07 13:44:50;;;;;;;16.60;9.63;;;;;;;;;;5025147;28;20053;-64
2022/09/07 13:47:16;;;;;;;;;;;;;;;;;;5029845;28;20037;-67
2022/09/07 13:49:49;;;;;;;17.58;8.73;;;;;;;;;;5041531;28;19921;-68
2022/09/07 13:52:23;;;;;;;23.58;9.63;;;;;;;;;;5046390;28;20044;-67
2022/09/07 13:54:57;;;;;;;18.27;9.38;;;;;;;;;;5032239;28;20045;-64
2022/09/07 13:57:23;;;;;;;20.83;9.60;;;;;;;;;;5029395;28;20044;-66
2022/09/07 13:59:51;;;;;;;19.88;9.57;;;;;;;;;;5027216;28;20049;-67
2022/09/07 14:02:23;;;;;;;22.80;10.68;;;;;;;;;;5031941;28;20863;-66
2022/09/07 14:04:51;;;;;;;18.67;9.70;;;;;;;;;;5043004;28;20329;-66
2022/09/07 14:07:22;;;;;;;25.45;10.50;;;;;;;;;;5037330;28;20041;-67
2022/09/07 14:09:49;;;;;;;19.90;10.45;;;;;;;;;;5019080;28;20045;-67
2022/09/07 14:12:19;;;;;;;21.45;9.98;;;;;;;;;;5029532;28;21337;-67
2022/09/07 14:14:46;;;;;;;23.52;10.65;;;;;;;;;;5026182;28;20040;-67
2022/09/07 14:17:14;;;;;;;22.20;10.52;;;;;;;;;;5040679;28;20044;-67
2022/09/07 14:19:50;;;;;;;23.02;10.95;;;;;;;;;;5037324;28;20552;-67
2022/09/07 14:22:23;;;;;;;20.98;10.10;;;;;;;;;;5030300;28;20040;-67
2022/09/07 14:24:57;;;;;;;32.40;11.57;;;;;;;;;;5034056;28;20044;-67
2022/09/07 14:27:38;;;;;;;18.63;10.45;;;;;;;;;;5034969;28;20037;-67
2022/09/07 14:30:19;;;;;;;23.77;10.38;;;;;;;;;;5039596;28;20217;-67
2022/09/07 14:32:51;;;;;;;24.52;10.80;;;;;;;;;;5044834;28;20051;-67
2022/09/07 14:35:20;;;;;;;19.75;10.93;;;;;;;;;;5034757;28;20190;-67
2022/09/07 14:37:47;;;;;;;25.98;10.50;;;;;;;;;;5018441;28;20038;-67
2022/09/07 14:40:18;;;;;;;22.90;10.48;;;;;;;;;;5021067;28;20405;-67
2022/09/07 14:42:44;;;;;;;18.77;10.98;;;;;;;;;;5030356;28;20044;-67
2022/09/07 14:45:31;;;;;;;20.30;10.95;;;;;;;;;;5039746;28;20131;-67
2022/09/07 14:47:58;;;;;;;22.42;10.98;;;;;;;;;;5039480;28;20051;-66
2022/09/07 14:50:27;;;;;;;20.80;10.70;;;;;;;;;;5039031;28;20049;-65
2022/09/07 14:52:54;;;;;;;23.42;11.52;;;;;;;;;;5041280;28;20064;-66